createdAt,value
2018-06-24T00:01:53.686Z,13.00
2018-06-24T00:04:22.276Z,13.00
2018-06-24T00:06:50.805Z,12.80
2018-06-24T00:09:19.341Z,12.90
2018-06-24T00:11:47.915Z,12.80
2018-06-24T00:14:16.399Z,12.90
2018-06-24T00:16:44.915Z,12.80
2018-06-24T00:19:13.723Z,12.70
2018-06-24T00:21:42.288Z,12.80
2018-06-24T00:24:10.809Z,12.80
2018-06-24T00:26:39.657Z,12.80
2018-06-24T00:29:08.154Z,12.80
2018-06-24T00:31:36.911Z,12.70
2018-06-24T00:34:05.737Z,12.70
2018-06-24T00:36:34.251Z,12.70
2018-06-24T00:39:06.075Z,12.40
2018-06-24T00:41:34.581Z,12.60
2018-06-24T00:44:03.147Z,12.70
2018-06-24T00:46:31.844Z,12.40
2018-06-24T00:49:00.381Z,12.40
2018-06-24T00:53:57.241Z,12.50
2018-06-24T00:56:26.156Z,12.40
2018-06-24T00:58:54.660Z,12.40
2018-06-24T01:01:23.264Z,12.40
2018-06-24T01:03:51.836Z,12.40
2018-06-24T01:06:20.332Z,12.30
2018-06-24T01:08:48.892Z,12.40
2018-06-24T01:11:18.031Z,12.30
2018-06-24T01:13:46.507Z,12.40
2018-06-24T01:16:15.977Z,12.30
2018-06-24T01:18:44.532Z,12.30
2018-06-24T01:21:13.105Z,12.30
2018-06-24T01:23:41.703Z,12.40
2018-06-24T01:26:10.380Z,12.40
2018-06-24T01:28:38.907Z,12.20
2018-06-24T01:31:07.434Z,12.30
2018-06-24T01:33:35.933Z,12.20
2018-06-24T01:36:04.466Z,12.20
2018-06-24T01:38:33.212Z,12.00
2018-06-24T01:41:01.745Z,12.30
2018-06-24T01:43:30.245Z,12.10
2018-06-24T01:45:58.936Z,12.00
2018-06-24T01:48:27.837Z,12.00
2018-06-24T01:50:56.337Z,12.00
2018-06-24T01:53:24.839Z,12.00
2018-06-24T01:55:53.406Z,12.00
2018-06-24T01:58:21.925Z,12.10
2018-06-24T02:00:50.792Z,12.00
2018-06-24T02:03:19.319Z,12.10
2018-06-24T02:05:48.368Z,12.10
2018-06-24T02:08:17.043Z,11.90
2018-06-24T02:13:13.747Z,11.80
2018-06-24T02:15:42.315Z,11.80
2018-06-24T02:18:10.835Z,11.70
2018-06-24T02:20:39.337Z,11.80
2018-06-24T02:23:07.986Z,11.80
2018-06-24T02:25:36.690Z,11.80
2018-06-24T02:28:05.494Z,11.70
2018-06-24T02:30:34.032Z,11.80
2018-06-24T02:33:02.590Z,11.80
2018-06-24T02:35:31.086Z,11.70
2018-06-24T02:37:59.655Z,11.70
2018-06-24T02:40:28.211Z,11.70
2018-06-24T02:42:56.773Z,11.70
2018-06-24T02:47:53.756Z,11.70
2018-06-24T02:50:22.294Z,11.60
2018-06-24T02:52:50.863Z,11.70
2018-06-24T02:55:19.388Z,11.60
2018-06-24T02:57:47.905Z,11.70
2018-06-24T03:00:16.426Z,11.50
2018-06-24T03:02:44.929Z,11.60
2018-06-24T03:05:13.521Z,11.70
2018-06-24T03:07:42.130Z,11.80
2018-06-24T03:10:10.828Z,11.60
2018-06-24T03:12:39.408Z,11.60
2018-06-24T03:15:07.894Z,11.70
2018-06-24T03:17:36.410Z,11.60
2018-06-24T03:20:05.373Z,11.50
2018-06-24T03:22:33.929Z,11.30
2018-06-24T03:25:02.471Z,11.50
2018-06-24T03:27:31.192Z,11.50
2018-06-24T03:29:59.710Z,11.40
2018-06-24T03:32:28.422Z,11.50
2018-06-24T03:34:57.180Z,11.40
2018-06-24T03:37:25.670Z,11.40
2018-06-24T03:42:22.420Z,11.50
2018-06-24T03:44:50.934Z,11.40
2018-06-24T03:47:19.503Z,11.40
2018-06-24T03:49:48.030Z,11.50
2018-06-24T03:52:16.671Z,11.50
2018-06-24T03:54:45.165Z,11.30
2018-06-24T03:57:13.647Z,11.40
2018-06-24T03:59:42.372Z,11.40
2018-06-24T04:02:11.315Z,11.50
2018-06-24T04:04:40.097Z,11.40
2018-06-24T04:07:08.602Z,11.40
2018-06-24T04:09:37.261Z,11.40
2018-06-24T04:12:06.399Z,11.40
2018-06-24T04:14:35.095Z,11.50
2018-06-24T04:17:03.663Z,11.30
2018-06-24T04:19:32.203Z,11.40
2018-06-24T04:22:00.736Z,11.50
2018-06-24T04:24:29.274Z,11.40
2018-06-24T04:26:57.929Z,11.50
2018-06-24T04:29:26.439Z,11.60
2018-06-24T04:31:54.937Z,11.60
2018-06-24T04:34:23.511Z,11.90
2018-06-24T04:36:52.015Z,11.60
2018-06-24T04:39:21.248Z,11.70
2018-06-24T04:44:17.916Z,11.70
2018-06-24T04:46:46.685Z,11.80
2018-06-24T04:51:43.531Z,11.70
2018-06-24T04:54:12.047Z,11.70
2018-06-24T04:56:40.856Z,12.00
2018-06-24T04:59:09.532Z,12.00
2018-06-24T05:01:38.087Z,12.00
2018-06-24T05:04:06.589Z,12.00
2018-06-24T05:06:35.194Z,12.10
2018-06-24T05:09:04.693Z,12.10
2018-06-24T05:11:33.178Z,12.00
2018-06-24T05:14:01.673Z,12.10
2018-06-24T05:16:30.367Z,12.00
2018-06-24T05:18:59.099Z,12.00
2018-06-24T05:21:27.624Z,12.30
2018-06-24T05:23:56.436Z,12.40
2018-06-24T05:26:25.351Z,12.40
2018-06-24T05:28:53.895Z,12.40
2018-06-24T05:31:22.387Z,12.40
2018-06-24T05:36:19.216Z,12.60
2018-06-24T05:38:47.805Z,12.70
2018-06-24T05:41:16.715Z,12.80
2018-06-24T05:43:45.886Z,12.90
2018-06-24T05:46:14.385Z,13.30
2018-06-24T05:48:43.413Z,12.80
2018-06-24T05:51:12.258Z,13.40
2018-06-24T05:53:40.810Z,13.40
2018-06-24T05:56:09.351Z,13.40
2018-06-24T05:58:37.902Z,13.80
2018-06-24T06:01:06.532Z,13.60
2018-06-24T06:03:35.364Z,13.70
2018-06-24T06:06:03.909Z,13.60
2018-06-24T06:08:32.634Z,13.80
2018-06-24T06:13:29.524Z,14.20
2018-06-24T06:15:58.073Z,14.10
2018-06-24T06:18:27.927Z,14.40
2018-06-24T06:20:56.420Z,14.40
2018-06-24T06:23:55.748Z,14.70
2018-06-24T06:26:24.280Z,14.90
2018-06-24T06:28:52.807Z,14.70
2018-06-24T06:31:21.401Z,14.80
2018-06-24T06:33:49.974Z,14.80
2018-06-24T06:36:18.455Z,15.00
2018-06-24T06:38:47.052Z,14.90
2018-06-24T06:43:43.946Z,14.90
2018-06-24T06:46:15.283Z,15.00
2018-06-24T06:48:43.845Z,15.00
2018-06-24T06:51:12.471Z,15.10
2018-06-24T06:53:41.027Z,15.10
2018-06-24T06:56:10.517Z,15.10
2018-06-24T06:58:39.347Z,15.10
2018-06-24T07:01:07.893Z,15.20
2018-06-24T07:03:36.477Z,15.20
2018-06-24T07:06:05.017Z,15.10
2018-06-24T07:08:33.752Z,15.20
2018-06-24T07:11:02.307Z,15.20
2018-06-24T07:13:30.819Z,15.30
2018-06-24T07:15:59.494Z,15.20
2018-06-24T07:18:28.243Z,15.50
2018-06-24T07:20:56.838Z,15.70
2018-06-24T07:23:25.339Z,15.50
2018-06-24T07:25:53.909Z,15.70
2018-06-24T07:30:51.573Z,15.70
2018-06-24T07:33:20.194Z,15.60
2018-06-24T07:35:49.024Z,15.60
2018-06-24T07:38:17.592Z,15.60
2018-06-24T07:40:46.184Z,15.60
2018-06-24T07:43:14.747Z,15.60
2018-06-24T07:45:43.330Z,15.70
2018-06-24T07:48:11.862Z,15.60
2018-06-24T07:50:40.632Z,15.90
2018-06-24T07:53:09.158Z,15.80
2018-06-24T07:55:38.199Z,15.80
2018-06-24T07:58:06.753Z,15.80
2018-06-24T08:00:35.299Z,16.00
2018-06-24T08:03:03.979Z,16.20
2018-06-24T08:05:32.553Z,16.10
2018-06-24T08:08:01.134Z,16.00
2018-06-24T08:10:29.694Z,16.20
2018-06-24T08:15:26.542Z,16.40
2018-06-24T08:17:55.160Z,16.30
2018-06-24T08:20:23.899Z,16.30
2018-06-24T08:22:52.554Z,16.20
2018-06-24T08:25:21.246Z,16.40
2018-06-24T08:27:50.371Z,16.50
2018-06-24T08:30:18.937Z,16.40
2018-06-24T08:32:47.661Z,16.40
2018-06-24T08:35:16.307Z,16.60
2018-06-24T08:37:44.829Z,16.50
2018-06-24T08:40:13.370Z,16.60
2018-06-24T08:42:41.945Z,16.70
2018-06-24T08:45:11.009Z,16.80
2018-06-24T08:47:39.668Z,16.60
2018-06-24T08:50:08.194Z,16.60
2018-06-24T08:52:36.789Z,16.50
2018-06-24T08:55:05.757Z,16.50
2018-06-24T08:57:34.843Z,16.70
2018-06-24T09:00:03.728Z,16.70
2018-06-24T09:02:32.308Z,16.80
2018-06-24T09:05:00.873Z,16.50
2018-06-24T09:07:30.273Z,16.50
2018-06-24T09:09:58.802Z,16.70
2018-06-24T09:12:27.321Z,16.60
2018-06-24T09:14:55.899Z,16.70
2018-06-24T09:17:25.248Z,16.70
2018-06-24T09:19:53.844Z,16.70
2018-06-24T09:22:23.143Z,16.80
2018-06-24T09:24:51.795Z,16.80
2018-06-24T09:27:20.790Z,16.90
2018-06-24T09:29:49.398Z,17.10
2018-06-24T09:32:17.929Z,17.10
2018-06-24T09:34:47.434Z,17.10
2018-06-24T09:37:16.158Z,17.20
2018-06-24T09:39:44.873Z,17.20
2018-06-24T09:42:13.505Z,17.20
2018-06-24T09:44:42.107Z,17.30
2018-06-24T09:47:10.672Z,17.30
2018-06-24T09:49:39.242Z,17.40
2018-06-24T09:52:08.043Z,17.40
2018-06-24T09:54:36.562Z,17.60
2018-06-24T09:57:05.307Z,17.50
2018-06-24T09:59:34.219Z,17.60
2018-06-24T10:02:02.885Z,17.50
2018-06-24T10:04:32.135Z,17.60
2018-06-24T10:07:00.958Z,17.70
2018-06-24T10:09:29.675Z,17.80
2018-06-24T10:11:59.527Z,17.60
2018-06-24T10:14:29.599Z,17.50
2018-06-24T10:16:58.131Z,17.40
2018-06-24T10:19:26.732Z,17.50
2018-06-24T10:21:55.729Z,17.60
2018-06-24T10:24:24.241Z,17.50
2018-06-24T10:26:53.501Z,17.60
2018-06-24T10:29:22.059Z,17.60
2018-06-24T10:34:18.837Z,17.70
2018-06-24T10:36:47.427Z,17.80
2018-06-24T10:39:15.983Z,17.80
2018-06-24T10:41:44.989Z,17.70
2018-06-24T10:44:13.598Z,17.70
2018-06-24T10:46:42.365Z,17.70
2018-06-24T10:49:10.880Z,17.60
2018-06-24T10:51:39.667Z,17.70
2018-06-24T10:54:08.399Z,17.80
2018-06-24T10:56:36.949Z,17.90
2018-06-24T10:59:05.762Z,17.80
2018-06-24T11:01:37.276Z,17.80
2018-06-24T11:04:09.959Z,17.80
2018-06-24T11:06:38.510Z,17.80
2018-06-24T11:09:08.941Z,17.80
2018-06-24T11:11:37.558Z,17.60
2018-06-24T11:14:06.769Z,17.70
2018-06-24T11:16:35.734Z,17.90
2018-06-24T11:19:04.232Z,17.80
2018-06-24T11:21:32.893Z,17.90
2018-06-24T11:24:01.548Z,17.80
2018-06-24T11:26:30.215Z,17.80
2018-06-24T11:28:58.957Z,17.90
2018-06-24T11:31:27.477Z,18.00
2018-06-24T11:33:56.092Z,18.00
2018-06-24T11:36:25.191Z,18.00
2018-06-24T11:38:54.128Z,17.90
2018-06-24T11:41:22.763Z,17.90
2018-06-24T11:43:51.343Z,18.00
2018-06-24T11:46:20.027Z,18.00
2018-06-24T11:48:48.568Z,18.00
2018-06-24T11:51:17.331Z,18.00
2018-06-24T11:53:46.511Z,18.10
2018-06-24T11:56:15.077Z,18.00
2018-06-24T11:58:43.944Z,18.00
2018-06-24T12:01:12.614Z,17.90
2018-06-24T12:03:42.241Z,18.10
2018-06-24T12:06:10.859Z,18.10
2018-06-24T12:08:40.930Z,17.90
2018-06-24T12:11:09.487Z,17.80
2018-06-24T12:13:38.119Z,18.10
2018-06-24T12:16:06.805Z,18.20
2018-06-24T12:18:35.401Z,18.20
2018-06-24T12:21:04.040Z,18.00
2018-06-24T12:23:32.836Z,18.10
2018-06-24T12:26:01.721Z,18.10
2018-06-24T12:28:30.786Z,18.10
2018-06-24T12:30:59.501Z,18.00
2018-06-24T12:33:28.466Z,18.00
2018-06-24T12:35:57.047Z,17.90
2018-06-24T12:38:25.607Z,17.90
2018-06-24T12:40:54.306Z,18.10
2018-06-24T12:43:23.341Z,18.10
2018-06-24T12:45:51.964Z,18.40
2018-06-24T12:48:20.526Z,18.40
2018-06-24T12:50:49.070Z,18.40
2018-06-24T12:53:17.600Z,18.40
2018-06-24T12:55:46.145Z,18.40
2018-06-24T12:58:15.092Z,18.40
2018-06-24T13:00:45.273Z,18.50
2018-06-24T13:03:13.776Z,18.50
2018-06-24T13:05:42.336Z,18.30
2018-06-24T13:08:10.836Z,18.40
2018-06-24T13:10:39.690Z,18.40
2018-06-24T13:13:08.711Z,18.40
2018-06-24T13:15:37.492Z,18.50
2018-06-24T13:18:07.072Z,18.30
2018-06-24T13:20:35.895Z,18.40
2018-06-24T13:23:04.477Z,18.40
2018-06-24T13:25:33.282Z,18.50
2018-06-24T13:30:30.050Z,18.40
2018-06-24T13:32:58.609Z,18.60
2018-06-24T13:35:27.176Z,18.70
2018-06-24T13:37:55.745Z,18.80
2018-06-24T13:40:25.823Z,18.80
2018-06-24T13:42:54.741Z,18.70
2018-06-24T13:45:23.789Z,18.60
2018-06-24T13:47:52.348Z,18.60
2018-06-24T13:50:20.830Z,18.40
2018-06-24T13:52:49.396Z,18.40
2018-06-24T13:55:17.961Z,18.60
2018-06-24T13:57:46.653Z,18.60
2018-06-24T14:00:15.627Z,18.60
2018-06-24T14:02:44.184Z,18.50
2018-06-24T14:05:12.813Z,18.40
2018-06-24T14:07:41.508Z,18.40
2018-06-24T14:10:10.091Z,18.60
2018-06-24T14:12:38.616Z,18.60
2018-06-24T14:15:08.034Z,18.50
2018-06-24T14:17:36.582Z,18.40
2018-06-24T14:22:33.609Z,18.20
2018-06-24T14:25:02.362Z,18.20
2018-06-24T14:27:31.065Z,18.20
2018-06-24T14:30:00.063Z,18.30
2018-06-24T14:32:28.626Z,18.30
2018-06-24T14:34:58.332Z,18.40
2018-06-24T14:37:27.607Z,18.40
2018-06-24T14:39:56.320Z,18.40
2018-06-24T14:42:24.984Z,18.40
2018-06-24T14:44:53.790Z,18.50
2018-06-24T14:47:22.708Z,18.40
2018-06-24T14:49:51.374Z,18.40
2018-06-24T14:52:20.316Z,18.30
2018-06-24T14:54:48.882Z,18.30
2018-06-24T15:00:17.593Z,18.20
2018-06-24T15:02:47.110Z,18.30
2018-06-24T15:05:15.925Z,18.10
2018-06-24T15:07:45.455Z,18.00
2018-06-24T15:10:14.058Z,18.00
2018-06-24T15:15:11.194Z,18.10
2018-06-24T15:17:39.705Z,18.20
2018-06-24T15:20:08.313Z,18.20
2018-06-24T15:22:36.859Z,18.20
2018-06-24T15:25:05.707Z,18.20
2018-06-24T15:27:34.318Z,18.10
2018-06-24T15:30:02.981Z,18.00
2018-06-24T15:32:31.652Z,18.00
2018-06-24T15:35:00.199Z,18.10
2018-06-24T15:37:28.738Z,18.20
2018-06-24T15:39:57.453Z,18.20
2018-06-24T15:42:26.355Z,18.20
2018-06-24T15:44:55.092Z,18.10
2018-06-24T15:47:24.362Z,18.30
2018-06-24T15:49:53.123Z,18.20
2018-06-24T15:52:21.649Z,18.20
2018-06-24T15:54:51.568Z,18.20
2018-06-24T15:57:20.147Z,18.10
2018-06-24T15:59:48.734Z,18.20
2018-06-24T16:02:17.373Z,18.30
2018-06-24T16:04:45.935Z,18.30
2018-06-24T16:07:15.030Z,18.40
2018-06-24T16:12:12.231Z,18.30
2018-06-24T16:14:40.835Z,18.40
2018-06-24T16:17:09.747Z,18.40
2018-06-24T16:19:38.330Z,18.40
2018-06-24T16:22:06.873Z,18.30
2018-06-24T16:24:36.647Z,18.30
2018-06-24T16:27:05.275Z,18.20
2018-06-24T16:29:33.861Z,18.00
2018-06-24T16:32:02.727Z,18.00
2018-06-24T16:34:33.726Z,17.90
2018-06-24T16:39:31.441Z,17.90
2018-06-24T16:42:00.192Z,17.90
2018-06-24T16:44:28.727Z,17.80
2018-06-24T16:46:57.283Z,17.70
2018-06-24T16:49:25.835Z,17.90
2018-06-24T16:51:54.405Z,18.00
2018-06-24T16:54:23.203Z,18.10
2018-06-24T16:59:20.285Z,17.90
2018-06-24T17:01:48.814Z,18.20
2018-06-24T17:04:17.492Z,17.90
2018-06-24T17:06:47.068Z,17.70
2018-06-24T17:09:16.075Z,17.70
2018-06-24T17:11:44.606Z,17.60
2018-06-24T17:14:13.143Z,17.50
2018-06-24T17:16:41.873Z,17.70
2018-06-24T17:19:10.578Z,17.50
2018-06-24T17:21:39.122Z,17.40
2018-06-24T17:24:07.724Z,17.20
2018-06-24T17:29:04.479Z,17.30
2018-06-24T17:31:33.163Z,17.40
2018-06-24T17:34:01.883Z,17.40
2018-06-24T17:36:30.566Z,17.60
2018-06-24T17:38:59.087Z,17.30
2018-06-24T17:41:27.732Z,17.20
2018-06-24T17:43:56.644Z,17.10
2018-06-24T17:46:25.220Z,17.10
2018-06-24T17:48:53.756Z,17.10
2018-06-24T17:51:22.351Z,17.10
2018-06-24T17:53:50.907Z,17.10
2018-06-24T17:56:19.400Z,17.00
2018-06-24T17:58:47.952Z,17.00
2018-06-24T18:01:16.520Z,17.00
2018-06-24T18:03:45.133Z,17.10
2018-06-24T18:06:13.931Z,17.00
2018-06-24T18:08:42.521Z,17.00
2018-06-24T18:11:11.328Z,16.90
2018-06-24T18:13:39.933Z,17.10
2018-06-24T18:16:08.541Z,17.10
2018-06-24T18:18:37.175Z,17.10
2018-06-24T18:21:06.223Z,17.10
2018-06-24T18:23:34.900Z,17.20
2018-06-24T18:26:03.494Z,17.10
2018-06-24T18:28:32.052Z,17.10
2018-06-24T18:31:00.618Z,17.10
2018-06-24T18:33:29.180Z,16.90
2018-06-24T18:35:57.829Z,16.90
2018-06-24T18:38:26.347Z,16.80
2018-06-24T18:40:54.934Z,16.80
2018-06-24T18:43:23.531Z,16.80
2018-06-24T18:45:52.913Z,16.80
2018-06-24T18:48:21.605Z,16.70
2018-06-24T18:53:17.819Z,16.60
2018-06-24T18:55:46.575Z,16.70
2018-06-24T18:58:15.172Z,16.60
2018-06-24T19:00:43.884Z,16.60
2018-06-24T19:03:12.472Z,16.50
2018-06-24T19:05:41.143Z,16.70
2018-06-24T19:08:09.921Z,16.80
2018-06-24T19:13:07.003Z,16.60
2018-06-24T19:15:35.598Z,16.60
2018-06-24T19:18:04.426Z,16.60
2018-06-24T19:20:32.975Z,16.50
2018-06-24T19:23:02.111Z,16.70
2018-06-24T19:28:29.633Z,16.70
2018-06-24T19:30:58.679Z,16.60
2018-06-24T19:33:28.870Z,16.50
2018-06-24T19:36:06.472Z,16.40
2018-06-24T19:38:38.201Z,16.30
2018-06-24T19:41:11.362Z,16.20
2018-06-24T19:43:41.922Z,16.10
2018-06-24T19:46:15.820Z,16.10
2018-06-24T19:48:45.546Z,16.00
2018-06-24T19:51:14.135Z,15.90
2018-06-24T19:53:42.769Z,16.00
2018-06-24T19:56:11.295Z,15.90
2018-06-24T19:58:39.813Z,15.80
2018-06-24T20:01:08.375Z,15.70
2018-06-24T20:03:36.881Z,15.70
2018-06-24T20:06:05.493Z,15.60
2018-06-24T20:08:34.045Z,15.60
2018-06-24T20:11:02.566Z,15.50
2018-06-24T20:13:31.136Z,15.40
2018-06-24T20:15:59.711Z,15.30
2018-06-24T20:18:28.273Z,15.30
2018-06-24T20:20:56.805Z,15.20
2018-06-24T20:23:25.489Z,15.20
2018-06-24T20:25:54.082Z,15.10
2018-06-24T20:28:22.594Z,15.10
2018-06-24T20:30:51.182Z,15.00
2018-06-24T20:33:19.788Z,14.80
2018-06-24T20:35:48.474Z,14.90
2018-06-24T20:38:17.201Z,14.80
2018-06-24T20:40:45.772Z,14.80
2018-06-24T20:43:14.514Z,14.70
2018-06-24T20:45:43.025Z,14.70
2018-06-24T20:48:12.961Z,14.60
2018-06-24T20:50:41.572Z,14.60
2018-06-24T20:53:10.136Z,14.50
2018-06-24T20:55:38.688Z,14.50
2018-06-24T20:58:07.257Z,14.40
2018-06-24T21:00:36.406Z,14.40
2018-06-24T21:03:04.963Z,14.30
2018-06-24T21:05:33.507Z,14.30
2018-06-24T21:08:02.053Z,14.50
2018-06-24T21:10:30.763Z,14.20
2018-06-24T21:12:59.466Z,14.20
2018-06-24T21:15:28.011Z,14.10
2018-06-24T21:17:56.809Z,14.00
2018-06-24T21:20:25.314Z,14.10
2018-06-24T21:22:54.080Z,14.10
2018-06-24T21:25:22.775Z,14.00
2018-06-24T21:27:52.123Z,14.00
2018-06-24T21:30:20.656Z,14.10
2018-06-24T21:32:49.533Z,14.00
2018-06-24T21:35:18.049Z,14.00
2018-06-24T21:37:46.585Z,13.90
2018-06-24T21:40:15.108Z,13.90
2018-06-24T21:42:43.680Z,13.90
2018-06-24T21:45:12.385Z,13.90
2018-06-24T21:47:40.914Z,13.90
2018-06-24T21:50:09.476Z,14.10
2018-06-24T21:52:38.047Z,13.90
2018-06-24T21:55:06.600Z,14.00
2018-06-24T21:57:35.066Z,13.80
2018-06-24T22:00:04.118Z,13.80
2018-06-24T22:02:32.637Z,13.80
2018-06-24T22:05:01.433Z,14.00
2018-06-24T22:07:30.143Z,14.00
2018-06-24T22:09:58.706Z,13.80
2018-06-24T22:12:27.449Z,13.80
2018-06-24T22:14:56.105Z,13.90
2018-06-24T22:19:53.034Z,13.70
2018-06-24T22:22:22.189Z,14.00
2018-06-24T22:24:50.731Z,14.00
2018-06-24T22:27:19.255Z,13.80
2018-06-24T22:29:48.034Z,14.10
2018-06-24T22:32:16.567Z,13.60
2018-06-24T22:34:45.067Z,13.80
2018-06-24T22:37:13.598Z,13.80
2018-06-24T22:39:42.097Z,13.80
2018-06-24T22:42:10.640Z,13.80
2018-06-24T22:44:39.159Z,13.80
2018-06-24T22:47:07.716Z,13.80
2018-06-24T22:49:36.197Z,13.90
2018-06-24T22:52:04.943Z,13.90
2018-06-24T22:54:33.568Z,13.80
2018-06-24T22:57:02.265Z,13.90
2018-06-24T22:59:41.957Z,13.90
2018-06-24T23:02:10.687Z,13.80
2018-06-24T23:04:39.227Z,14.10
2018-06-24T23:07:08.395Z,14.10
2018-06-24T23:09:37.006Z,13.80
2018-06-24T23:12:05.906Z,13.80
2018-06-24T23:14:34.484Z,13.60
2018-06-24T23:17:03.175Z,13.70
2018-06-24T23:19:32.306Z,13.50
2018-06-24T23:22:01.681Z,13.70
2018-06-24T23:24:30.195Z,13.70
2018-06-24T23:26:58.692Z,13.80
2018-06-24T23:29:27.386Z,13.80
2018-06-24T23:31:55.873Z,13.70
2018-06-24T23:34:24.368Z,13.60
2018-06-24T23:36:52.895Z,13.50
2018-06-24T23:39:21.464Z,13.70
2018-06-24T23:41:49.989Z,13.60
2018-06-24T23:44:18.544Z,13.80
2018-06-24T23:46:47.063Z,13.70
2018-06-24T23:49:15.668Z,13.60
2018-06-24T23:51:44.224Z,13.60
2018-06-24T23:54:12.890Z,13.60
2018-06-24T23:56:41.923Z,13.60
2018-06-24T23:59:10.478Z,13.50
